CNK2 weather

CLOSED Kincardine (Ellis Field) Airport
Kincardine, Ontario, Canada

Public forecast

Using degrees Celsius for public forecast. Weather courtesy of forecast.io.

Closest aviation weather report (METAR) to Kincardine (Ellis Field) Airport

Closest report is Wiarton Airport, 37.6 nm (69.6 km) NNE. Retrieved 2019/11/18 07:00 UTC (42 minutes ago):

CYVV 180700Z 13003KT 15SM OVC080 M00/M05 A2987 RMK AS8 SLP125

Closest aviation forecast (TAF) to Kincardine (Ellis Field) Airport

Forecast is more than 6 hours old.

Closest forecast is Wiarton Airport, 37.6 nm (69.6 km) NNE. Retrieved 2019/11/17 20:00 UTC (12 hours ago):

TAF CYVV 171938Z 1720/1724 11005KT P6SM SCT180 FM172300 14008KT P6SM BKN150 RMK NXT FCST WILL BE ISSUED AT 181145Z